CheckWX is a tool to help pilots better visualize weather data.  It is not intended as a substitute for an official pre-flight weather briefing.

13:38:42 UTC

CYQR METAR
Regina International Airport
Regina, Canada
Current

39 mins ago

CYQR 071300Z 13009KT 12SM FEW004 SCT120 M04/M05 A2962 RMK SF1AC3 SF TR SLP065
Observed
Dec-7 @ 13:00 UTC
Wind
  • 130° at 9 KTS
Visibility
12 SM
Flight Rules
VFR
Cloud Levels
  • Few at 400' AGL
  • Scattered at 12,000' AGL
Temperature
-4°C / 25°F
Dewpoint
-5°C / 23°F
Humidity
93%
Altimeter
29.62" Hg
Pressure
1003.02 hPa
Previous

2 hours ago

CYQR 071200Z 14008KT 12SM FEW004 OVC120 M04/M05 A2965 RMK SF2AC6 SLP077
Observed
Dec-7 @ 12:00 UTC
Wind
  • 140° at 8 KTS
Visibility
12 SM
Flight Rules
VFR
Cloud Levels
  • Few at 400' AGL
  • Overcast at 12,000' AGL
Temperature
-4°C / 25°F
Dewpoint
-5°C / 23°F
Humidity
93%
Altimeter
29.65" Hg
Pressure
1004.02 hPa
Previous

3 hours ago

CYQR 071100Z 14013KT 12SM FEW004 OVC110 M04/M05 A2967 RMK SF2AC6 SLP083
Observed
Dec-7 @ 11:00 UTC
Wind
  • 140° at 13 KTS
Visibility
12 SM
Flight Rules
VFR
Cloud Levels
  • Few at 400' AGL
  • Overcast at 11,000' AGL
Temperature
-4°C / 25°F
Dewpoint
-5°C / 23°F
Humidity
93%
Altimeter
29.67" Hg
Pressure
1004.72 hPa